sensor_id;sensor_type;location;lat;lon;timestamp;P1;durP1;ratioP1;P2;durP2;ratioP2
4462;SDS011;2244;50.200;8.220;2023-04-15T00:01:28;13.70;;;3.30;;
4462;SDS011;2244;50.200;8.220;2023-04-15T00:03:57;12.03;;;3.10;;
4462;SDS011;2244;50.200;8.220;2023-04-15T00:06:24;10.03;;;3.10;;
4462;SDS011;2244;50.200;8.220;2023-04-15T00:08:52;13.33;;;3.10;;
4462;SDS011;2244;50.200;8.220;2023-04-15T00:11:19;12.40;;;3.50;;
4462;SDS011;2244;50.200;8.220;2023-04-15T00:13:47;13.93;;;3.57;;
4462;SDS011;2244;50.200;8.220;2023-04-15T00:16:14;11.40;;;3.57;;
4462;SDS011;2244;50.200;8.220;2023-04-15T00:18:42;10.27;;;3.10;;
4462;SDS011;2244;50.200;8.220;2023-04-15T00:21:09;11.73;;;3.00;;
4462;SDS011;2244;50.200;8.220;2023-04-15T00:23:37;11.47;;;3.43;;
4462;SDS011;2244;50.200;8.220;2023-04-15T00:26:04;12.30;;;3.70;;
4462;SDS011;2244;50.200;8.220;2023-04-15T00:28:31;13.10;;;3.10;;
4462;SDS011;2244;50.200;8.220;2023-04-15T00:30:59;11.07;;;3.03;;
4462;SDS011;2244;50.200;8.220;2023-04-15T00:33:26;10.93;;;3.30;;
4462;SDS011;2244;50.200;8.220;2023-04-15T00:35:53;9.37;;;3.10;;
4462;SDS011;2244;50.200;8.220;2023-04-15T00:38:21;12.37;;;2.73;;
4462;SDS011;2244;50.200;8.220;2023-04-15T00:40:48;9.57;;;3.23;;
4462;SDS011;2244;50.200;8.220;2023-04-15T00:43:16;11.00;;;2.93;;
4462;SDS011;2244;50.200;8.220;2023-04-15T00:45:44;12.33;;;2.90;;
4462;SDS011;2244;50.200;8.220;2023-04-15T00:48:12;9.47;;;2.90;;
4462;SDS011;2244;50.200;8.220;2023-04-15T00:50:41;10.00;;;2.60;;
4462;SDS011;2244;50.200;8.220;2023-04-15T00:53:08;10.73;;;2.97;;
4462;SDS011;2244;50.200;8.220;2023-04-15T00:55:35;12.80;;;3.07;;
4462;SDS011;2244;50.200;8.220;2023-04-15T00:58:03;11.83;;;2.90;;
4462;SDS011;2244;50.200;8.220;2023-04-15T01:00:31;10.53;;;2.90;;
4462;SDS011;2244;50.200;8.220;2023-04-15T01:02:58;9.50;;;2.80;;
4462;SDS011;2244;50.200;8.220;2023-04-15T01:05:26;10.63;;;2.87;;
4462;SDS011;2244;50.200;8.220;2023-04-15T01:07:54;11.17;;;3.20;;
4462;SDS011;2244;50.200;8.220;2023-04-15T01:10:21;8.63;;;2.50;;
4462;SDS011;2244;50.200;8.220;2023-04-15T01:12:49;10.70;;;2.97;;
4462;SDS011;2244;50.200;8.220;2023-04-15T01:15:16;10.90;;;2.93;;
4462;SDS011;2244;50.200;8.220;2023-04-15T01:17:44;10.20;;;3.30;;
4462;SDS011;2244;50.200;8.220;2023-04-15T01:20:11;11.60;;;2.83;;
4462;SDS011;2244;50.200;8.220;2023-04-15T01:22:41;8.30;;;2.80;;
4462;SDS011;2244;50.200;8.220;2023-04-15T01:25:12;9.90;;;2.70;;
4462;SDS011;2244;50.200;8.220;2023-04-15T01:27:40;9.10;;;2.90;;
4462;SDS011;2244;50.200;8.220;2023-04-15T01:30:08;10.60;;;3.20;;
4462;SDS011;2244;50.200;8.220;2023-04-15T01:32:36;11.20;;;3.27;;
4462;SDS011;2244;50.200;8.220;2023-04-15T01:35:03;10.67;;;3.07;;
4462;SDS011;2244;50.200;8.220;2023-04-15T01:37:31;9.60;;;2.87;;
4462;SDS011;2244;50.200;8.220;2023-04-15T01:39:58;12.63;;;3.53;;
4462;SDS011;2244;50.200;8.220;2023-04-15T01:42:25;9.97;;;3.13;;
4462;SDS011;2244;50.200;8.220;2023-04-15T01:44:53;9.93;;;3.00;;
4462;SDS011;2244;50.200;8.220;2023-04-15T01:47:21;11.37;;;3.57;;
4462;SDS011;2244;50.200;8.220;2023-04-15T01:49:48;10.80;;;2.90;;
4462;SDS011;2244;50.200;8.220;2023-04-15T01:52:15;11.63;;;3.03;;
4462;SDS011;2244;50.200;8.220;2023-04-15T01:54:43;15.97;;;2.90;;
4462;SDS011;2244;50.200;8.220;2023-04-15T01:57:11;9.43;;;3.30;;
4462;SDS011;2244;50.200;8.220;2023-04-15T01:59:38;14.50;;;3.13;;
4462;SDS011;2244;50.200;8.220;2023-04-15T02:02:06;14.70;;;2.73;;
4462;SDS011;2244;50.200;8.220;2023-04-15T02:04:33;9.33;;;2.60;;
4462;SDS011;2244;50.200;8.220;2023-04-15T02:07:01;10.63;;;3.00;;
4462;SDS011;2244;50.200;8.220;2023-04-15T02:09:28;12.30;;;3.37;;
4462;SDS011;2244;50.200;8.220;2023-04-15T02:11:56;10.33;;;3.33;;
4462;SDS011;2244;50.200;8.220;2023-04-15T02:14:23;17.13;;;2.83;;
4462;SDS011;2244;50.200;8.220;2023-04-15T02:16:51;9.10;;;2.87;;
4462;SDS011;2244;50.200;8.220;2023-04-15T02:19:18;10.93;;;3.40;;
4462;SDS011;2244;50.200;8.220;2023-04-15T02:21:46;10.57;;;3.27;;
4462;SDS011;2244;50.200;8.220;2023-04-15T02:24:13;12.23;;;3.60;;
4462;SDS011;2244;50.200;8.220;2023-04-15T02:26:41;15.37;;;3.40;;
4462;SDS011;2244;50.200;8.220;2023-04-15T02:29:08;12.30;;;3.30;;
4462;SDS011;2244;50.200;8.220;2023-04-15T02:31:35;9.27;;;2.90;;
4462;SDS011;2244;50.200;8.220;2023-04-15T02:34:04;9.50;;;2.60;;
4462;SDS011;2244;50.200;8.220;2023-04-15T02:36:32;10.70;;;3.43;;
4462;SDS011;2244;50.200;8.220;2023-04-15T02:39:00;11.40;;;3.20;;
4462;SDS011;2244;50.200;8.220;2023-04-15T02:41:28;11.40;;;3.07;;
4462;SDS011;2244;50.200;8.220;2023-04-15T02:43:56;10.33;;;3.10;;
4462;SDS011;2244;50.200;8.220;2023-04-15T02:46:23;11.80;;;3.20;;
4462;SDS011;2244;50.200;8.220;2023-04-15T02:48:50;10.47;;;3.43;;
4462;SDS011;2244;50.200;8.220;2023-04-15T02:51:19;10.23;;;3.00;;
4462;SDS011;2244;50.200;8.220;2023-04-15T02:53:48;10.30;;;3.00;;
4462;SDS011;2244;50.200;8.220;2023-04-15T02:56:15;10.10;;;3.10;;
4462;SDS011;2244;50.200;8.220;2023-04-15T02:58:44;11.43;;;3.10;;
4462;SDS011;2244;50.200;8.220;2023-04-15T03:01:12;14.20;;;2.80;;
4462;SDS011;2244;50.200;8.220;2023-04-15T03:03:39;10.53;;;3.13;;
4462;SDS011;2244;50.200;8.220;2023-04-15T03:06:07;10.20;;;2.90;;
4462;SDS011;2244;50.200;8.220;2023-04-15T03:08:34;11.30;;;3.17;;
4462;SDS011;2244;50.200;8.220;2023-04-15T03:11:02;8.80;;;2.73;;
4462;SDS011;2244;50.200;8.220;2023-04-15T03:13:30;10.10;;;3.30;;
4462;SDS011;2244;50.200;8.220;2023-04-15T03:15:57;9.13;;;2.90;;
4462;SDS011;2244;50.200;8.220;2023-04-15T03:18:25;10.13;;;2.67;;
4462;SDS011;2244;50.200;8.220;2023-04-15T03:20:52;11.07;;;2.60;;
4462;SDS011;2244;50.200;8.220;2023-04-15T03:23:19;13.40;;;3.10;;
4462;SDS011;2244;50.200;8.220;2023-04-15T03:25:47;9.77;;;2.60;;
4462;SDS011;2244;50.200;8.220;2023-04-15T03:28:14;10.17;;;2.53;;
4462;SDS011;2244;50.200;8.220;2023-04-15T03:30:41;11.60;;;2.67;;
4462;SDS011;2244;50.200;8.220;2023-04-15T03:33:09;9.87;;;2.80;;
4462;SDS011;2244;50.200;8.220;2023-04-15T03:35:36;9.67;;;2.70;;
4462;SDS011;2244;50.200;8.220;2023-04-15T03:38:04;8.60;;;2.40;;
4462;SDS011;2244;50.200;8.220;2023-04-15T03:40:31;12.60;;;3.03;;
4462;SDS011;2244;50.200;8.220;2023-04-15T03:42:59;9.23;;;2.77;;
4462;SDS011;2244;50.200;8.220;2023-04-15T03:45:26;11.57;;;3.17;;
4462;SDS011;2244;50.200;8.220;2023-04-15T03:47:53;9.50;;;2.73;;
4462;SDS011;2244;50.200;8.220;2023-04-15T03:50:21;10.43;;;2.40;;
4462;SDS011;2244;50.200;8.220;2023-04-15T03:52:48;10.70;;;2.43;;
4462;SDS011;2244;50.200;8.220;2023-04-15T03:55:17;10.93;;;2.43;;
4462;SDS011;2244;50.200;8.220;2023-04-15T03:57:45;13.87;;;2.87;;
4462;SDS011;2244;50.200;8.220;2023-04-15T04:00:12;8.40;;;2.60;;
4462;SDS011;2244;50.200;8.220;2023-04-15T04:02:39;10.13;;;3.03;;
4462;SDS011;2244;50.200;8.220;2023-04-15T04:05:07;11.10;;;2.80;;
4462;SDS011;2244;50.200;8.220;2023-04-15T04:07:35;10.87;;;3.30;;
4462;SDS011;2244;50.200;8.220;2023-04-15T04:10:02;11.27;;;3.20;;
4462;SDS011;2244;50.200;8.220;2023-04-15T04:12:29;10.00;;;2.80;;
4462;SDS011;2244;50.200;8.220;2023-04-15T04:14:57;13.30;;;2.47;;
4462;SDS011;2244;50.200;8.220;2023-04-15T04:17:24;10.63;;;3.03;;
4462;SDS011;2244;50.200;8.220;2023-04-15T04:19:52;9.50;;;3.07;;
4462;SDS011;2244;50.200;8.220;2023-04-15T04:22:22;9.60;;;2.87;;
4462;SDS011;2244;50.200;8.220;2023-04-15T04:24:50;10.77;;;2.90;;
4462;SDS011;2244;50.200;8.220;2023-04-15T04:27:17;11.10;;;3.13;;
4462;SDS011;2244;50.200;8.220;2023-04-15T04:29:45;9.80;;;2.80;;
4462;SDS011;2244;50.200;8.220;2023-04-15T04:32:13;10.23;;;2.53;;
4462;SDS011;2244;50.200;8.220;2023-04-15T04:34:40;11.70;;;3.03;;
4462;SDS011;2244;50.200;8.220;2023-04-15T04:37:08;14.00;;;2.97;;
4462;SDS011;2244;50.200;8.220;2023-04-15T04:39:35;8.97;;;2.70;;
4462;SDS011;2244;50.200;8.220;2023-04-15T04:42:03;11.17;;;2.60;;
4462;SDS011;2244;50.200;8.220;2023-04-15T04:44:30;9.30;;;2.60;;
4462;SDS011;2244;50.200;8.220;2023-04-15T04:46:57;11.93;;;2.73;;
4462;SDS011;2244;50.200;8.220;2023-04-15T04:49:25;14.20;;;3.10;;
4462;SDS011;2244;50.200;8.220;2023-04-15T04:51:52;12.47;;;2.90;;
4462;SDS011;2244;50.200;8.220;2023-04-15T04:54:20;9.03;;;2.73;;
4462;SDS011;2244;50.200;8.220;2023-04-15T04:56:47;9.27;;;2.80;;
4462;SDS011;2244;50.200;8.220;2023-04-15T04:59:15;10.70;;;2.90;;
4462;SDS011;2244;50.200;8.220;2023-04-15T05:01:43;11.00;;;2.97;;
4462;SDS011;2244;50.200;8.220;2023-04-15T05:04:11;11.07;;;3.00;;
4462;SDS011;2244;50.200;8.220;2023-04-15T05:06:38;11.23;;;3.27;;
4462;SDS011;2244;50.200;8.220;2023-04-15T05:09:06;10.17;;;2.77;;
4462;SDS011;2244;50.200;8.220;2023-04-15T05:11:33;10.13;;;3.00;;
4462;SDS011;2244;50.200;8.220;2023-04-15T05:14:01;10.07;;;2.40;;
4462;SDS011;2244;50.200;8.220;2023-04-15T05:16:28;9.23;;;2.87;;
4462;SDS011;2244;50.200;8.220;2023-04-15T05:18:55;12.73;;;3.10;;
4462;SDS011;2244;50.200;8.220;2023-04-15T05:21:23;11.00;;;2.97;;
4462;SDS011;2244;50.200;8.220;2023-04-15T05:23:51;9.00;;;2.67;;
4462;SDS011;2244;50.200;8.220;2023-04-15T05:26:18;10.10;;;3.20;;
4462;SDS011;2244;50.200;8.220;2023-04-15T05:28:47;9.60;;;2.47;;
4462;SDS011;2244;50.200;8.220;2023-04-15T05:31:15;13.00;;;3.13;;
4462;SDS011;2244;50.200;8.220;2023-04-15T05:33:42;9.27;;;3.17;;
4462;SDS011;2244;50.200;8.220;2023-04-15T05:36:09;11.00;;;2.90;;
4462;SDS011;2244;50.200;8.220;2023-04-15T05:38:37;9.60;;;3.13;;
4462;SDS011;2244;50.200;8.220;2023-04-15T05:41:04;10.10;;;3.10;;
4462;SDS011;2244;50.200;8.220;2023-04-15T05:43:32;10.03;;;3.00;;
4462;SDS011;2244;50.200;8.220;2023-04-15T05:45:59;9.70;;;2.90;;
4462;SDS011;2244;50.200;8.220;2023-04-15T05:48:27;10.87;;;2.80;;
4462;SDS011;2244;50.200;8.220;2023-04-15T05:50:54;12.60;;;3.40;;
4462;SDS011;2244;50.200;8.220;2023-04-15T05:53:21;12.20;;;3.50;;
4462;SDS011;2244;50.200;8.220;2023-04-15T05:55:49;9.43;;;2.80;;
4462;SDS011;2244;50.200;8.220;2023-04-15T05:58:16;11.67;;;3.37;;
4462;SDS011;2244;50.200;8.220;2023-04-15T06:00:44;15.27;;;3.40;;
4462;SDS011;2244;50.200;8.220;2023-04-15T06:03:11;10.90;;;2.90;;
4462;SDS011;2244;50.200;8.220;2023-04-15T06:05:39;10.07;;;2.50;;
4462;SDS011;2244;50.200;8.220;2023-04-15T06:08:06;10.33;;;2.50;;
4462;SDS011;2244;50.200;8.220;2023-04-15T06:10:34;9.93;;;3.33;;
4462;SDS011;2244;50.200;8.220;2023-04-15T06:13:02;10.50;;;3.00;;
4462;SDS011;2244;50.200;8.220;2023-04-15T06:15:30;9.60;;;2.60;;
4462;SDS011;2244;50.200;8.220;2023-04-15T06:17:57;11.30;;;2.90;;
4462;SDS011;2244;50.200;8.220;2023-04-15T06:20:25;9.80;;;3.00;;
4462;SDS011;2244;50.200;8.220;2023-04-15T06:22:53;18.00;;;3.33;;
4462;SDS011;2244;50.200;8.220;2023-04-15T06:25:20;9.50;;;2.70;;
4462;SDS011;2244;50.200;8.220;2023-04-15T06:27:48;14.00;;;3.10;;
4462;SDS011;2244;50.200;8.220;2023-04-15T06:30:15;9.43;;;2.73;;
4462;SDS011;2244;50.200;8.220;2023-04-15T06:32:43;9.03;;;2.70;;
4462;SDS011;2244;50.200;8.220;2023-04-15T06:35:11;9.80;;;3.13;;
4462;SDS011;2244;50.200;8.220;2023-04-15T06:37:39;14.63;;;3.10;;
4462;SDS011;2244;50.200;8.220;2023-04-15T06:40:06;10.03;;;2.40;;
4462;SDS011;2244;50.200;8.220;2023-04-15T06:42:35;8.33;;;2.30;;
4462;SDS011;2244;50.200;8.220;2023-04-15T06:45:03;10.60;;;2.20;;
4462;SDS011;2244;50.200;8.220;2023-04-15T06:47:32;10.40;;;3.00;;
4462;SDS011;2244;50.200;8.220;2023-04-15T06:49:59;10.30;;;2.60;;
4462;SDS011;2244;50.200;8.220;2023-04-15T06:52:27;8.57;;;2.57;;
4462;SDS011;2244;50.200;8.220;2023-04-15T06:54:54;11.93;;;3.23;;
4462;SDS011;2244;50.200;8.220;2023-04-15T06:57:22;13.57;;;2.87;;
4462;SDS011;2244;50.200;8.220;2023-04-15T06:59:49;10.93;;;2.70;;
4462;SDS011;2244;50.200;8.220;2023-04-15T07:02:18;12.23;;;3.13;;
4462;SDS011;2244;50.200;8.220;2023-04-15T07:04:45;13.50;;;2.90;;
4462;SDS011;2244;50.200;8.220;2023-04-15T07:07:12;10.07;;;3.83;;
4462;SDS011;2244;50.200;8.220;2023-04-15T07:09:40;11.47;;;3.70;;
4462;SDS011;2244;50.200;8.220;2023-04-15T07:12:08;10.80;;;3.60;;
4462;SDS011;2244;50.200;8.220;2023-04-15T07:14:35;11.43;;;4.47;;
4462;SDS011;2244;50.200;8.220;2023-04-15T07:17:03;12.73;;;4.83;;
4462;SDS011;2244;50.200;8.220;2023-04-15T07:19:30;13.60;;;5.27;;
4462;SDS011;2244;50.200;8.220;2023-04-15T07:21:57;11.03;;;5.07;;
4462;SDS011;2244;50.200;8.220;2023-04-15T07:24:25;11.97;;;5.00;;
4462;SDS011;2244;50.200;8.220;2023-04-15T07:26:53;12.80;;;4.87;;
4462;SDS011;2244;50.200;8.220;2023-04-15T07:29:24;18.23;;;5.67;;
4462;SDS011;2244;50.200;8.220;2023-04-15T07:31:52;11.90;;;5.10;;
4462;SDS011;2244;50.200;8.220;2023-04-15T07:34:19;15.67;;;5.90;;
4462;SDS011;2244;50.200;8.220;2023-04-15T07:36:47;13.30;;;6.23;;
4462;SDS011;2244;50.200;8.220;2023-04-15T07:39:18;17.33;;;6.43;;
4462;SDS011;2244;50.200;8.220;2023-04-15T07:41:46;14.27;;;5.93;;
4462;SDS011;2244;50.200;8.220;2023-04-15T07:44:14;14.30;;;5.80;;
4462;SDS011;2244;50.200;8.220;2023-04-15T07:46:41;14.60;;;5.13;;
4462;SDS011;2244;50.200;8.220;2023-04-15T07:49:09;12.03;;;4.33;;
4462;SDS011;2244;50.200;8.220;2023-04-15T07:51:36;10.93;;;4.77;;
4462;SDS011;2244;50.200;8.220;2023-04-15T07:54:04;12.80;;;4.63;;
4462;SDS011;2244;50.200;8.220;2023-04-15T07:56:31;13.67;;;4.70;;
4462;SDS011;2244;50.200;8.220;2023-04-15T07:58:58;13.73;;;5.43;;
4462;SDS011;2244;50.200;8.220;2023-04-15T08:01:28;14.57;;;5.03;;
4462;SDS011;2244;50.200;8.220;2023-04-15T08:03:55;12.67;;;4.50;;
4462;SDS011;2244;50.200;8.220;2023-04-15T08:06:23;14.80;;;5.70;;
4462;SDS011;2244;50.200;8.220;2023-04-15T08:08:50;13.27;;;5.27;;
4462;SDS011;2244;50.200;8.220;2023-04-15T08:11:18;15.23;;;6.07;;
4462;SDS011;2244;50.200;8.220;2023-04-15T08:13:46;11.97;;;5.10;;
4462;SDS011;2244;50.200;8.220;2023-04-15T08:16:17;15.57;;;4.90;;
4462;SDS011;2244;50.200;8.220;2023-04-15T08:18:45;11.80;;;4.87;;
4462;SDS011;2244;50.200;8.220;2023-04-15T08:21:12;12.10;;;5.37;;
4462;SDS011;2244;50.200;8.220;2023-04-15T08:23:40;11.03;;;4.83;;
4462;SDS011;2244;50.200;8.220;2023-04-15T08:26:08;15.80;;;6.20;;
4462;SDS011;2244;50.200;8.220;2023-04-15T08:28:37;13.53;;;5.60;;
4462;SDS011;2244;50.200;8.220;2023-04-15T08:31:04;14.40;;;4.30;;
4462;SDS011;2244;50.200;8.220;2023-04-15T08:33:32;12.47;;;4.93;;
4462;SDS011;2244;50.200;8.220;2023-04-15T08:36:00;12.47;;;4.53;;
4462;SDS011;2244;50.200;8.220;2023-04-15T08:38:27;10.57;;;4.10;;
4462;SDS011;2244;50.200;8.220;2023-04-15T08:40:54;10.70;;;4.30;;
4462;SDS011;2244;50.200;8.220;2023-04-15T08:43:26;11.50;;;4.17;;
4462;SDS011;2244;50.200;8.220;2023-04-15T08:45:54;11.30;;;4.30;;
4462;SDS011;2244;50.200;8.220;2023-04-15T08:48:23;10.07;;;3.70;;
4462;SDS011;2244;50.200;8.220;2023-04-15T08:50:52;10.00;;;3.77;;
4462;SDS011;2244;50.200;8.220;2023-04-15T08:53:19;12.40;;;3.80;;
4462;SDS011;2244;50.200;8.220;2023-04-15T08:55:50;10.13;;;3.63;;
4462;SDS011;2244;50.200;8.220;2023-04-15T08:58:16;13.27;;;2.83;;
4462;SDS011;2244;50.200;8.220;2023-04-15T09:00:44;14.50;;;3.13;;
4462;SDS011;2244;50.200;8.220;2023-04-15T09:03:12;10.67;;;3.10;;
4462;SDS011;2244;50.200;8.220;2023-04-15T09:05:39;10.60;;;3.07;;
4462;SDS011;2244;50.200;8.220;2023-04-15T09:08:07;11.23;;;2.70;;
4462;SDS011;2244;50.200;8.220;2023-04-15T09:10:35;10.53;;;2.67;;
4462;SDS011;2244;50.200;8.220;2023-04-15T09:13:02;11.30;;;2.77;;
4462;SDS011;2244;50.200;8.220;2023-04-15T09:15:30;9.33;;;2.67;;
4462;SDS011;2244;50.200;8.220;2023-04-15T09:17:59;8.93;;;2.50;;
4462;SDS011;2244;50.200;8.220;2023-04-15T09:20:26;11.43;;;3.00;;
4462;SDS011;2244;50.200;8.220;2023-04-15T09:22:54;11.83;;;2.83;;
4462;SDS011;2244;50.200;8.220;2023-04-15T09:27:51;10.30;;;2.70;;
4462;SDS011;2244;50.200;8.220;2023-04-15T09:30:19;13.07;;;3.13;;
4462;SDS011;2244;50.200;8.220;2023-04-15T09:32:53;10.00;;;3.13;;
4462;SDS011;2244;50.200;8.220;2023-04-15T09:35:22;10.80;;;2.63;;
4462;SDS011;2244;50.200;8.220;2023-04-15T09:37:50;8.90;;;2.50;;
4462;SDS011;2244;50.200;8.220;2023-04-15T09:40:40;11.23;;;2.40;;
4462;SDS011;2244;50.200;8.220;2023-04-15T09:42:58;8.70;;;2.40;;
4462;SDS011;2244;50.200;8.220;2023-04-15T09:45:22;9.90;;;2.77;;
4462;SDS011;2244;50.200;8.220;2023-04-15T09:47:51;9.93;;;2.50;;
4462;SDS011;2244;50.200;8.220;2023-04-15T09:50:19;10.83;;;2.90;;
4462;SDS011;2244;50.200;8.220;2023-04-15T09:52:46;12.57;;;3.33;;
4462;SDS011;2244;50.200;8.220;2023-04-15T09:55:14;9.43;;;2.60;;
4462;SDS011;2244;50.200;8.220;2023-04-15T09:57:42;10.53;;;3.07;;
4462;SDS011;2244;50.200;8.220;2023-04-15T10:00:10;13.07;;;2.90;;
4462;SDS011;2244;50.200;8.220;2023-04-15T10:02:38;11.70;;;3.77;;
4462;SDS011;2244;50.200;8.220;2023-04-15T10:05:10;9.60;;;3.23;;
4462;SDS011;2244;50.200;8.220;2023-04-15T10:07:39;12.13;;;3.80;;
4462;SDS011;2244;50.200;8.220;2023-04-15T10:10:06;12.10;;;3.00;;
4462;SDS011;2244;50.200;8.220;2023-04-15T10:12:36;11.10;;;3.03;;
4462;SDS011;2244;50.200;8.220;2023-04-15T10:15:03;10.10;;;2.70;;
4462;SDS011;2244;50.200;8.220;2023-04-15T10:17:32;13.50;;;3.30;;
4462;SDS011;2244;50.200;8.220;2023-04-15T10:20:01;10.70;;;2.50;;
4462;SDS011;2244;50.200;8.220;2023-04-15T10:22:30;9.10;;;2.47;;
4462;SDS011;2244;50.200;8.220;2023-04-15T10:24:58;10.87;;;2.80;;
4462;SDS011;2244;50.200;8.220;2023-04-15T10:27:29;10.37;;;3.13;;
4462;SDS011;2244;50.200;8.220;2023-04-15T10:29:57;9.80;;;2.53;;
4462;SDS011;2244;50.200;8.220;2023-04-15T10:32:27;12.93;;;2.40;;
4462;SDS011;2244;50.200;8.220;2023-04-15T10:34:54;8.87;;;2.23;;
4462;SDS011;2244;50.200;8.220;2023-04-15T10:37:33;9.47;;;2.30;;
4462;SDS011;2244;50.200;8.220;2023-04-15T10:39:51;10.30;;;2.90;;
4462;SDS011;2244;50.200;8.220;2023-04-15T10:42:18;9.00;;;2.00;;
4462;SDS011;2244;50.200;8.220;2023-04-15T10:44:49;17.27;;;2.90;;
4462;SDS011;2244;50.200;8.220;2023-04-15T10:47:19;8.80;;;2.13;;
4462;SDS011;2244;50.200;8.220;2023-04-15T10:49:48;9.03;;;1.70;;
4462;SDS011;2244;50.200;8.220;2023-04-15T10:52:16;7.80;;;1.50;;
4462;SDS011;2244;50.200;8.220;2023-04-15T10:54:44;8.87;;;1.63;;
4462;SDS011;2244;50.200;8.220;2023-04-15T10:57:57;8.60;;;1.53;;
4462;SDS011;2244;50.200;8.220;2023-04-15T11:02:38;8.03;;;1.20;;
4462;SDS011;2244;50.200;8.220;2023-04-15T11:05:07;8.03;;;1.10;;
4462;SDS011;2244;50.200;8.220;2023-04-15T11:13:01;7.90;;;1.20;;
4462;SDS011;2244;50.200;8.220;2023-04-15T11:15:26;8.20;;;1.17;;
4462;SDS011;2244;50.200;8.220;2023-04-15T11:17:55;6.97;;;1.30;;
4462;SDS011;2244;50.200;8.220;2023-04-15T11:20:23;8.07;;;1.40;;
4462;SDS011;2244;50.200;8.220;2023-04-15T11:22:51;7.73;;;1.60;;
4462;SDS011;2244;50.200;8.220;2023-04-15T11:25:27;7.87;;;1.67;;
4462;SDS011;2244;50.200;8.220;2023-04-15T11:27:55;8.50;;;1.57;;
4462;SDS011;2244;50.200;8.220;2023-04-15T11:30:23;8.83;;;1.60;;
4462;SDS011;2244;50.200;8.220;2023-04-15T11:32:53;8.37;;;1.57;;
4462;SDS011;2244;50.200;8.220;2023-04-15T11:35:21;8.50;;;1.40;;
4462;SDS011;2244;50.200;8.220;2023-04-15T11:37:48;7.93;;;1.33;;
4462;SDS011;2244;50.200;8.220;2023-04-15T11:40:16;7.63;;;1.80;;
4462;SDS011;2244;50.200;8.220;2023-04-15T11:42:44;8.73;;;1.70;;
4462;SDS011;2244;50.200;8.220;2023-04-15T11:45:14;6.93;;;1.23;;
4462;SDS011;2244;50.200;8.220;2023-04-15T11:47:41;7.97;;;1.60;;
4462;SDS011;2244;50.200;8.220;2023-04-15T11:50:18;9.17;;;2.20;;
4462;SDS011;2244;50.200;8.220;2023-04-15T11:52:53;8.83;;;1.50;;
4462;SDS011;2244;50.200;8.220;2023-04-15T11:55:20;8.00;;;1.67;;
4462;SDS011;2244;50.200;8.220;2023-04-15T11:57:49;7.80;;;1.57;;
4462;SDS011;2244;50.200;8.220;2023-04-15T12:00:18;8.00;;;1.70;;
4462;SDS011;2244;50.200;8.220;2023-04-15T12:02:46;7.63;;;1.67;;
4462;SDS011;2244;50.200;8.220;2023-04-15T12:05:14;7.90;;;1.57;;
4462;SDS011;2244;50.200;8.220;2023-04-15T12:07:57;7.73;;;1.87;;
4462;SDS011;2244;50.200;8.220;2023-04-15T12:10:25;8.90;;;1.87;;
4462;SDS011;2244;50.200;8.220;2023-04-15T12:12:52;7.80;;;1.70;;
4462;SDS011;2244;50.200;8.220;2023-04-15T12:15:23;7.90;;;1.90;;
4462;SDS011;2244;50.200;8.220;2023-04-15T12:17:53;8.10;;;1.63;;
4462;SDS011;2244;50.200;8.220;2023-04-15T12:20:25;8.40;;;2.10;;
4462;SDS011;2244;50.200;8.220;2023-04-15T12:22:52;8.17;;;1.90;;
4462;SDS011;2244;50.200;8.220;2023-04-15T12:25:31;10.40;;;2.40;;
4462;SDS011;2244;50.200;8.220;2023-04-15T12:27:50;8.60;;;2.60;;
4462;SDS011;2244;50.200;8.220;2023-04-15T12:30:18;7.73;;;1.80;;
4462;SDS011;2244;50.200;8.220;2023-04-15T12:32:46;7.70;;;2.00;;
4462;SDS011;2244;50.200;8.220;2023-04-15T12:35:14;8.10;;;2.07;;
4462;SDS011;2244;50.200;8.220;2023-04-15T12:37:41;7.87;;;1.90;;
4462;SDS011;2244;50.200;8.220;2023-04-15T12:40:09;8.53;;;2.33;;
4462;SDS011;2244;50.200;8.220;2023-04-15T12:42:36;8.30;;;2.10;;
4462;SDS011;2244;50.200;8.220;2023-04-15T12:45:04;8.50;;;2.13;;
4462;SDS011;2244;50.200;8.220;2023-04-15T12:47:32;8.53;;;2.27;;
4462;SDS011;2244;50.200;8.220;2023-04-15T12:49:59;8.00;;;2.03;;
4462;SDS011;2244;50.200;8.220;2023-04-15T12:52:27;7.40;;;1.57;;
4462;SDS011;2244;50.200;8.220;2023-04-15T12:54:54;7.50;;;1.70;;
4462;SDS011;2244;50.200;8.220;2023-04-15T12:57:21;7.70;;;2.00;;
4462;SDS011;2244;50.200;8.220;2023-04-15T12:59:49;8.87;;;2.00;;
4462;SDS011;2244;50.200;8.220;2023-04-15T13:02:16;8.13;;;1.90;;
4462;SDS011;2244;50.200;8.220;2023-04-15T13:04:44;8.97;;;2.20;;
4462;SDS011;2244;50.200;8.220;2023-04-15T13:07:11;8.50;;;2.50;;
4462;SDS011;2244;50.200;8.220;2023-04-15T13:09:41;7.60;;;2.00;;
4462;SDS011;2244;50.200;8.220;2023-04-15T13:12:08;7.80;;;2.27;;
4462;SDS011;2244;50.200;8.220;2023-04-15T13:14:35;8.37;;;2.37;;
4462;SDS011;2244;50.200;8.220;2023-04-15T13:17:03;8.20;;;2.40;;
4462;SDS011;2244;50.200;8.220;2023-04-15T13:19:32;7.50;;;2.10;;
4462;SDS011;2244;50.200;8.220;2023-04-15T13:21:59;8.47;;;2.60;;
4462;SDS011;2244;50.200;8.220;2023-04-15T13:24:27;8.30;;;2.47;;
4462;SDS011;2244;50.200;8.220;2023-04-15T13:26:54;7.97;;;2.40;;
4462;SDS011;2244;50.200;8.220;2023-04-15T13:29:23;9.00;;;2.50;;
4462;SDS011;2244;50.200;8.220;2023-04-15T13:31:51;8.87;;;2.73;;
4462;SDS011;2244;50.200;8.220;2023-04-15T13:34:18;8.10;;;2.50;;
4462;SDS011;2244;50.200;8.220;2023-04-15T13:36:45;10.53;;;2.97;;
4462;SDS011;2244;50.200;8.220;2023-04-15T13:39:13;8.80;;;2.90;;
4462;SDS011;2244;50.200;8.220;2023-04-15T13:41:40;8.47;;;2.90;;
4462;SDS011;2244;50.200;8.220;2023-04-15T13:44:08;11.33;;;3.70;;
4462;SDS011;2244;50.200;8.220;2023-04-15T13:46:35;8.67;;;3.27;;
4462;SDS011;2244;50.200;8.220;2023-04-15T13:49:04;9.80;;;3.30;;
4462;SDS011;2244;50.200;8.220;2023-04-15T13:51:31;9.73;;;3.50;;
4462;SDS011;2244;50.200;8.220;2023-04-15T13:54:00;9.50;;;4.00;;
4462;SDS011;2244;50.200;8.220;2023-04-15T13:56:28;9.17;;;3.60;;
4462;SDS011;2244;50.200;8.220;2023-04-15T13:58:57;10.10;;;3.90;;
4462;SDS011;2244;50.200;8.220;2023-04-15T14:01:29;10.10;;;4.50;;
4462;SDS011;2244;50.200;8.220;2023-04-15T14:03:56;9.40;;;4.10;;
4462;SDS011;2244;50.200;8.220;2023-04-15T14:06:24;11.93;;;3.97;;
4462;SDS011;2244;50.200;8.220;2023-04-15T14:08:52;9.90;;;3.83;;
4462;SDS011;2244;50.200;8.220;2023-04-15T14:11:20;9.53;;;3.70;;
4462;SDS011;2244;50.200;8.220;2023-04-15T14:13:48;10.30;;;3.47;;
4462;SDS011;2244;50.200;8.220;2023-04-15T14:16:15;9.50;;;3.90;;
4462;SDS011;2244;50.200;8.220;2023-04-15T14:18:43;9.97;;;3.40;;
4462;SDS011;2244;50.200;8.220;2023-04-15T14:21:10;9.30;;;3.60;;
4462;SDS011;2244;50.200;8.220;2023-04-15T14:23:38;10.10;;;4.27;;
4462;SDS011;2244;50.200;8.220;2023-04-15T14:26:05;9.30;;;4.13;;
4462;SDS011;2244;50.200;8.220;2023-04-15T14:28:32;11.30;;;4.80;;
4462;SDS011;2244;50.200;8.220;2023-04-15T14:31:00;10.83;;;4.60;;
4462;SDS011;2244;50.200;8.220;2023-04-15T14:33:27;11.50;;;5.90;;
4462;SDS011;2244;50.200;8.220;2023-04-15T14:35:54;12.70;;;6.30;;
4462;SDS011;2244;50.200;8.220;2023-04-15T14:38:22;13.90;;;7.23;;
4462;SDS011;2244;50.200;8.220;2023-04-15T14:40:49;11.87;;;6.37;;
4462;SDS011;2244;50.200;8.220;2023-04-15T14:43:16;23.83;;;6.90;;
4462;SDS011;2244;50.200;8.220;2023-04-15T14:45:44;12.20;;;6.37;;
4462;SDS011;2244;50.200;8.220;2023-04-15T14:48:11;12.70;;;6.73;;
4462;SDS011;2244;50.200;8.220;2023-04-15T14:50:39;11.73;;;5.87;;
4462;SDS011;2244;50.200;8.220;2023-04-15T14:53:06;11.40;;;5.67;;
4462;SDS011;2244;50.200;8.220;2023-04-15T14:55:34;11.10;;;5.40;;
4462;SDS011;2244;50.200;8.220;2023-04-15T14:58:01;11.53;;;5.63;;
4462;SDS011;2244;50.200;8.220;2023-04-15T15:00:29;11.50;;;5.30;;
4462;SDS011;2244;50.200;8.220;2023-04-15T15:02:57;11.60;;;6.20;;
4462;SDS011;2244;50.200;8.220;2023-04-15T15:05:24;12.17;;;5.90;;
4462;SDS011;2244;50.200;8.220;2023-04-15T15:07:52;12.10;;;6.30;;
4462;SDS011;2244;50.200;8.220;2023-04-15T15:10:19;14.13;;;6.57;;
4462;SDS011;2244;50.200;8.220;2023-04-15T15:12:49;12.53;;;6.50;;
4462;SDS011;2244;50.200;8.220;2023-04-15T15:15:16;11.83;;;5.90;;
4462;SDS011;2244;50.200;8.220;2023-04-15T15:17:45;12.83;;;6.47;;
4462;SDS011;2244;50.200;8.220;2023-04-15T15:20:12;11.63;;;5.43;;
4462;SDS011;2244;50.200;8.220;2023-04-15T15:22:41;11.63;;;5.83;;